GMFF/FEZ METAR and TAF weather

Enter ICAO airport designator
Station Type Date Time Source
GMFF METAR 2020/04/06 16:30 UTC NOAA

GMFF 061630Z 33008KT 280V010 9999 BKN033 SCT230 23/14 Q1021 NOSIG


Station Type Date Time Source
GMFF Decoded METAR 2020/04/06 16:30 UTC NOAA

Fes-Sais, Morocco (GMFF) 33-56N 004-59W 579M
Apr 06, 2020 - 12:30 PM EDT / 2020.04.06 1630 UTC
Wind: from the NNW (330 degrees) at 9 MPH (8 KT) (direction variable):0
Visibility: greater than 7 mile(s):0
Sky conditions: mostly cloudy
Temperature: 73 F (23 C)
Dew Point: 57 F (14 C)
Relative Humidity: 56%
Pressure (altimeter): 30.15 in. Hg (1021 hPa)
ob: GMFF 061630Z 33008KT 280V010 9999 BKN033 SCT230 23/14 Q1021 NOSIG
cycle: 16

Station Type Date Time Source
GMFF TAF 2020/04/06 12:18 UTC NOAA

TAF TAF GMFF 061100Z 0612/0718 30008KT 9999 SCT023 SCT230
BECMG 0700/0702 BKN010
BECMG 0708/0710 SCT020
BECMG 0712/0714 CAVOK

Example: see airport list